sensor_id;sensor_type;location;lat;lon;timestamp;temperature;humidity
802;DHT22;383;48.766;9.270;2023-05-07T00:00:18;14.60;91.40
802;DHT22;383;48.766;9.270;2023-05-07T00:02:46;14.70;91.00
802;DHT22;383;48.766;9.270;2023-05-07T00:05:13;14.70;91.10
802;DHT22;383;48.766;9.270;2023-05-07T00:07:40;14.70;91.20
802;DHT22;383;48.766;9.270;2023-05-07T00:10:08;14.70;91.20
802;DHT22;383;48.766;9.270;2023-05-07T00:12:35;14.60;91.30
802;DHT22;383;48.766;9.270;2023-05-07T00:15:02;14.70;91.40
802;DHT22;383;48.766;9.270;2023-05-07T00:17:29;14.60;91.40
802;DHT22;383;48.766;9.270;2023-05-07T00:19:57;14.70;91.30
802;DHT22;383;48.766;9.270;2023-05-07T00:22:24;14.60;91.70
802;DHT22;383;48.766;9.270;2023-05-07T00:24:50;14.60;91.90
802;DHT22;383;48.766;9.270;2023-05-07T00:27:17;14.50;92.30
802;DHT22;383;48.766;9.270;2023-05-07T00:29:44;14.50;92.40
802;DHT22;383;48.766;9.270;2023-05-07T00:32:11;14.60;92.20
802;DHT22;383;48.766;9.270;2023-05-07T00:34:37;14.50;92.00
802;DHT22;383;48.766;9.270;2023-05-07T00:37:06;14.60;92.20
802;DHT22;383;48.766;9.270;2023-05-07T00:39:34;14.60;92.60
802;DHT22;383;48.766;9.270;2023-05-07T00:42:00;14.50;92.60
802;DHT22;383;48.766;9.270;2023-05-07T00:44:28;14.50;92.50
802;DHT22;383;48.766;9.270;2023-05-07T00:46:55;14.40;92.60
802;DHT22;383;48.766;9.270;2023-05-07T00:49:24;14.40;92.80
802;DHT22;383;48.766;9.270;2023-05-07T00:51:54;14.50;92.70
802;DHT22;383;48.766;9.270;2023-05-07T00:54:23;14.50;92.40
802;DHT22;383;48.766;9.270;2023-05-07T00:56:49;14.50;92.20
802;DHT22;383;48.766;9.270;2023-05-07T00:59:16;14.50;92.30
802;DHT22;383;48.766;9.270;2023-05-07T01:01:43;14.50;92.20
802;DHT22;383;48.766;9.270;2023-05-07T01:04:10;14.40;92.60
802;DHT22;383;48.766;9.270;2023-05-07T01:06:37;14.40;92.60
802;DHT22;383;48.766;9.270;2023-05-07T01:09:05;14.40;92.60
802;DHT22;383;48.766;9.270;2023-05-07T01:11:33;14.40;92.40
802;DHT22;383;48.766;9.270;2023-05-07T01:14:00;14.40;92.70
802;DHT22;383;48.766;9.270;2023-05-07T01:16:26;14.30;92.60
802;DHT22;383;48.766;9.270;2023-05-07T01:18:53;14.30;92.80
802;DHT22;383;48.766;9.270;2023-05-07T01:21:25;14.20;93.40
802;DHT22;383;48.766;9.270;2023-05-07T01:23:53;14.10;93.50
802;DHT22;383;48.766;9.270;2023-05-07T01:26:21;14.10;93.70
802;DHT22;383;48.766;9.270;2023-05-07T01:28:49;14.00;94.00
802;DHT22;383;48.766;9.270;2023-05-07T01:31:17;14.00;94.20
802;DHT22;383;48.766;9.270;2023-05-07T01:33:44;14.00;94.10
802;DHT22;383;48.766;9.270;2023-05-07T01:36:13;14.10;93.80
802;DHT22;383;48.766;9.270;2023-05-07T01:38:40;14.00;93.90
802;DHT22;383;48.766;9.270;2023-05-07T01:41:10;14.10;93.70
802;DHT22;383;48.766;9.270;2023-05-07T01:43:37;14.10;93.60
802;DHT22;383;48.766;9.270;2023-05-07T01:46:04;14.10;93.60
802;DHT22;383;48.766;9.270;2023-05-07T01:48:32;14.00;93.70
802;DHT22;383;48.766;9.270;2023-05-07T01:50:59;14.00;93.90
802;DHT22;383;48.766;9.270;2023-05-07T01:53:27;13.90;94.00
802;DHT22;383;48.766;9.270;2023-05-07T01:55:54;13.80;94.10
802;DHT22;383;48.766;9.270;2023-05-07T01:58:22;13.80;94.70
802;DHT22;383;48.766;9.270;2023-05-07T02:00:48;13.70;94.60
802;DHT22;383;48.766;9.270;2023-05-07T02:03:15;13.60;95.00
802;DHT22;383;48.766;9.270;2023-05-07T02:05:42;13.60;95.10
802;DHT22;383;48.766;9.270;2023-05-07T02:08:09;13.70;94.80
802;DHT22;383;48.766;9.270;2023-05-07T02:10:36;13.70;94.90
802;DHT22;383;48.766;9.270;2023-05-07T02:13:02;13.60;95.10
802;DHT22;383;48.766;9.270;2023-05-07T02:15:30;13.60;95.30
802;DHT22;383;48.766;9.270;2023-05-07T02:18:02;13.60;95.10
802;DHT22;383;48.766;9.270;2023-05-07T02:20:28;13.70;95.00
802;DHT22;383;48.766;9.270;2023-05-07T02:22:55;13.70;94.70
802;DHT22;383;48.766;9.270;2023-05-07T02:25:22;13.70;94.70
802;DHT22;383;48.766;9.270;2023-05-07T02:27:49;13.60;94.90
802;DHT22;383;48.766;9.270;2023-05-07T02:30:15;13.60;94.90
802;DHT22;383;48.766;9.270;2023-05-07T02:32:43;13.50;95.30
802;DHT22;383;48.766;9.270;2023-05-07T02:35:10;13.50;95.30
802;DHT22;383;48.766;9.270;2023-05-07T02:37:37;13.50;95.50
802;DHT22;383;48.766;9.270;2023-05-07T02:40:05;13.50;95.30
802;DHT22;383;48.766;9.270;2023-05-07T02:42:32;13.50;95.30
802;DHT22;383;48.766;9.270;2023-05-07T02:44:58;13.40;95.30
802;DHT22;383;48.766;9.270;2023-05-07T02:47:25;13.40;95.50
802;DHT22;383;48.766;9.270;2023-05-07T02:49:55;13.40;95.50
802;DHT22;383;48.766;9.270;2023-05-07T02:52:22;13.30;95.50
802;DHT22;383;48.766;9.270;2023-05-07T02:54:48;13.30;95.60
802;DHT22;383;48.766;9.270;2023-05-07T02:57:15;13.10;96.00
802;DHT22;383;48.766;9.270;2023-05-07T02:59:42;13.10;96.40
802;DHT22;383;48.766;9.270;2023-05-07T03:02:09;13.00;96.30
802;DHT22;383;48.766;9.270;2023-05-07T03:04:36;13.00;96.70
802;DHT22;383;48.766;9.270;2023-05-07T03:07:04;12.90;96.90
802;DHT22;383;48.766;9.270;2023-05-07T03:09:31;12.90;97.10
802;DHT22;383;48.766;9.270;2023-05-07T03:11:57;12.90;96.90
802;DHT22;383;48.766;9.270;2023-05-07T03:14:24;12.90;96.90
802;DHT22;383;48.766;9.270;2023-05-07T03:16:51;13.00;96.60
802;DHT22;383;48.766;9.270;2023-05-07T03:19:17;13.00;96.40
802;DHT22;383;48.766;9.270;2023-05-07T03:21:44;13.00;96.30
802;DHT22;383;48.766;9.270;2023-05-07T03:24:12;12.90;96.60
802;DHT22;383;48.766;9.270;2023-05-07T03:26:38;12.80;96.90
802;DHT22;383;48.766;9.270;2023-05-07T03:29:05;12.70;97.20
802;DHT22;383;48.766;9.270;2023-05-07T03:31:32;12.60;97.70
802;DHT22;383;48.766;9.270;2023-05-07T03:33:58;12.50;98.00
802;DHT22;383;48.766;9.270;2023-05-07T03:36:25;12.50;98.10
802;DHT22;383;48.766;9.270;2023-05-07T03:38:53;12.50;98.00
802;DHT22;383;48.766;9.270;2023-05-07T03:41:21;12.60;97.60
802;DHT22;383;48.766;9.270;2023-05-07T03:43:47;12.70;97.00
802;DHT22;383;48.766;9.270;2023-05-07T03:46:14;12.70;96.90
802;DHT22;383;48.766;9.270;2023-05-07T03:48:41;12.70;97.00
802;DHT22;383;48.766;9.270;2023-05-07T03:51:08;12.60;97.10
802;DHT22;383;48.766;9.270;2023-05-07T03:53:34;12.50;97.70
802;DHT22;383;48.766;9.270;2023-05-07T03:56:01;12.60;97.40
802;DHT22;383;48.766;9.270;2023-05-07T03:58:29;12.60;97.30
802;DHT22;383;48.766;9.270;2023-05-07T04:00:56;12.70;96.90
802;DHT22;383;48.766;9.270;2023-05-07T04:03:22;12.70;96.70
802;DHT22;383;48.766;9.270;2023-05-07T04:05:49;12.60;96.60
802;DHT22;383;48.766;9.270;2023-05-07T04:08:16;12.50;97.40
802;DHT22;383;48.766;9.270;2023-05-07T04:10:42;12.60;97.10
802;DHT22;383;48.766;9.270;2023-05-07T04:13:09;12.60;96.90
802;DHT22;383;48.766;9.270;2023-05-07T04:15:37;12.60;96.80
802;DHT22;383;48.766;9.270;2023-05-07T04:18:04;12.60;96.60
802;DHT22;383;48.766;9.270;2023-05-07T04:20:30;12.60;96.90
802;DHT22;383;48.766;9.270;2023-05-07T04:23:01;12.50;96.90
802;DHT22;383;48.766;9.270;2023-05-07T04:25:28;12.50;97.50
802;DHT22;383;48.766;9.270;2023-05-07T04:27:55;12.50;97.40
802;DHT22;383;48.766;9.270;2023-05-07T04:30:21;12.60;97.10
802;DHT22;383;48.766;9.270;2023-05-07T04:32:49;12.60;97.00
802;DHT22;383;48.766;9.270;2023-05-07T04:35:16;12.70;96.80
802;DHT22;383;48.766;9.270;2023-05-07T04:37:43;12.70;96.80
802;DHT22;383;48.766;9.270;2023-05-07T04:40:10;12.70;96.80
802;DHT22;383;48.766;9.270;2023-05-07T04:42:37;12.70;96.90
802;DHT22;383;48.766;9.270;2023-05-07T04:45:04;12.80;97.10
802;DHT22;383;48.766;9.270;2023-05-07T04:47:31;12.90;96.60
802;DHT22;383;48.766;9.270;2023-05-07T04:50:00;12.90;96.50
802;DHT22;383;48.766;9.270;2023-05-07T04:52:26;13.00;96.20
802;DHT22;383;48.766;9.270;2023-05-07T04:54:53;13.00;95.90
802;DHT22;383;48.766;9.270;2023-05-07T04:57:20;13.00;95.90
802;DHT22;383;48.766;9.270;2023-05-07T04:59:46;13.00;96.40
802;DHT22;383;48.766;9.270;2023-05-07T05:02:13;13.00;96.50
802;DHT22;383;48.766;9.270;2023-05-07T05:04:40;13.00;96.50
802;DHT22;383;48.766;9.270;2023-05-07T05:07:08;13.00;96.50
802;DHT22;383;48.766;9.270;2023-05-07T05:09:35;13.00;96.70
802;DHT22;383;48.766;9.270;2023-05-07T05:12:01;13.00;96.90
802;DHT22;383;48.766;9.270;2023-05-07T05:14:29;13.20;96.40
802;DHT22;383;48.766;9.270;2023-05-07T05:16:56;13.30;95.80
802;DHT22;383;48.766;9.270;2023-05-07T05:19:23;13.30;96.00
802;DHT22;383;48.766;9.270;2023-05-07T05:21:49;13.40;96.10
802;DHT22;383;48.766;9.270;2023-05-07T05:24:17;13.50;95.70
802;DHT22;383;48.766;9.270;2023-05-07T05:26:44;13.50;95.50
802;DHT22;383;48.766;9.270;2023-05-07T05:29:11;13.50;95.50
802;DHT22;383;48.766;9.270;2023-05-07T05:31:37;13.40;95.90
802;DHT22;383;48.766;9.270;2023-05-07T05:34:04;13.50;96.00
802;DHT22;383;48.766;9.270;2023-05-07T05:36:31;13.50;96.70
802;DHT22;383;48.766;9.270;2023-05-07T05:38:57;13.60;97.20
802;DHT22;383;48.766;9.270;2023-05-07T05:41:25;13.70;96.80
802;DHT22;383;48.766;9.270;2023-05-07T05:43:52;13.80;96.60
802;DHT22;383;48.766;9.270;2023-05-07T05:46:19;13.90;96.50
802;DHT22;383;48.766;9.270;2023-05-07T05:48:45;14.00;96.60
802;DHT22;383;48.766;9.270;2023-05-07T05:51:12;14.10;96.90
802;DHT22;383;48.766;9.270;2023-05-07T05:53:39;14.20;96.90
802;DHT22;383;48.766;9.270;2023-05-07T05:56:06;14.30;96.80
802;DHT22;383;48.766;9.270;2023-05-07T05:58:34;14.40;96.10
802;DHT22;383;48.766;9.270;2023-05-07T06:01:01;14.50;95.30
802;DHT22;383;48.766;9.270;2023-05-07T06:03:28;14.60;95.60
802;DHT22;383;48.766;9.270;2023-05-07T06:05:55;14.70;95.50
802;DHT22;383;48.766;9.270;2023-05-07T06:08:22;14.80;94.50
802;DHT22;383;48.766;9.270;2023-05-07T06:10:48;14.80;94.90
802;DHT22;383;48.766;9.270;2023-05-07T06:13:15;15.00;94.40
802;DHT22;383;48.766;9.270;2023-05-07T06:15:43;15.20;94.00
802;DHT22;383;48.766;9.270;2023-05-07T06:18:10;15.30;93.50
802;DHT22;383;48.766;9.270;2023-05-07T06:20:37;15.40;93.20
802;DHT22;383;48.766;9.270;2023-05-07T06:23:03;15.60;92.00
802;DHT22;383;48.766;9.270;2023-05-07T06:25:30;15.70;91.50
802;DHT22;383;48.766;9.270;2023-05-07T06:27:57;15.80;91.20
802;DHT22;383;48.766;9.270;2023-05-07T06:30:23;15.90;90.90
802;DHT22;383;48.766;9.270;2023-05-07T06:32:52;16.00;90.70
802;DHT22;383;48.766;9.270;2023-05-07T06:35:18;16.20;88.80
802;DHT22;383;48.766;9.270;2023-05-07T06:37:45;16.20;87.80
802;DHT22;383;48.766;9.270;2023-05-07T06:40:12;16.30;87.60
802;DHT22;383;48.766;9.270;2023-05-07T06:42:39;16.40;87.40
802;DHT22;383;48.766;9.270;2023-05-07T06:45:07;16.40;87.30
802;DHT22;383;48.766;9.270;2023-05-07T06:47:33;16.30;88.00
802;DHT22;383;48.766;9.270;2023-05-07T06:50:02;16.40;87.70
802;DHT22;383;48.766;9.270;2023-05-07T06:52:28;16.40;88.20
802;DHT22;383;48.766;9.270;2023-05-07T06:54:55;16.50;87.80
802;DHT22;383;48.766;9.270;2023-05-07T06:57:22;16.50;86.10
802;DHT22;383;48.766;9.270;2023-05-07T06:59:48;16.50;86.30
802;DHT22;383;48.766;9.270;2023-05-07T07:02:15;16.50;86.70
802;DHT22;383;48.766;9.270;2023-05-07T07:04:42;16.60;87.10
802;DHT22;383;48.766;9.270;2023-05-07T07:07:11;16.70;87.30
802;DHT22;383;48.766;9.270;2023-05-07T07:09:38;16.70;88.10
802;DHT22;383;48.766;9.270;2023-05-07T07:12:05;16.80;86.80
802;DHT22;383;48.766;9.270;2023-05-07T07:14:32;16.80;86.40
802;DHT22;383;48.766;9.270;2023-05-07T07:16:58;16.90;85.30
802;DHT22;383;48.766;9.270;2023-05-07T07:19:25;17.10;84.80
802;DHT22;383;48.766;9.270;2023-05-07T07:21:52;17.30;84.00
802;DHT22;383;48.766;9.270;2023-05-07T07:24:20;17.40;83.20
802;DHT22;383;48.766;9.270;2023-05-07T07:26:47;17.70;81.80
802;DHT22;383;48.766;9.270;2023-05-07T07:29:13;18.00;81.40
802;DHT22;383;48.766;9.270;2023-05-07T07:31:40;18.20;81.00
802;DHT22;383;48.766;9.270;2023-05-07T07:34:07;18.40;80.20
802;DHT22;383;48.766;9.270;2023-05-07T07:36:33;18.60;80.40
802;DHT22;383;48.766;9.270;2023-05-07T07:39:00;18.90;78.90
802;DHT22;383;48.766;9.270;2023-05-07T07:41:28;19.10;76.90
802;DHT22;383;48.766;9.270;2023-05-07T07:43:55;19.40;76.70
802;DHT22;383;48.766;9.270;2023-05-07T07:46:21;19.70;75.00
802;DHT22;383;48.766;9.270;2023-05-07T07:48:48;19.90;74.60
802;DHT22;383;48.766;9.270;2023-05-07T07:51:15;20.20;74.50
802;DHT22;383;48.766;9.270;2023-05-07T07:53:41;20.40;71.70
802;DHT22;383;48.766;9.270;2023-05-07T07:56:08;20.80;72.10
802;DHT22;383;48.766;9.270;2023-05-07T07:58:37;21.10;70.70
802;DHT22;383;48.766;9.270;2023-05-07T08:01:04;21.40;70.00
802;DHT22;383;48.766;9.270;2023-05-07T08:03:31;21.70;68.20
802;DHT22;383;48.766;9.270;2023-05-07T08:05:59;21.90;69.10
802;DHT22;383;48.766;9.270;2023-05-07T08:08:26;22.10;67.10
802;DHT22;383;48.766;9.270;2023-05-07T08:10:52;22.30;66.60
802;DHT22;383;48.766;9.270;2023-05-07T08:13:19;22.40;65.40
802;DHT22;383;48.766;9.270;2023-05-07T08:15:47;22.50;65.50
802;DHT22;383;48.766;9.270;2023-05-07T08:18:13;22.60;64.90
802;DHT22;383;48.766;9.270;2023-05-07T08:20:40;22.80;64.90
802;DHT22;383;48.766;9.270;2023-05-07T08:23:07;23.00;64.90
802;DHT22;383;48.766;9.270;2023-05-07T08:25:34;23.10;64.10
802;DHT22;383;48.766;9.270;2023-05-07T08:28:01;23.20;62.90
802;DHT22;383;48.766;9.270;2023-05-07T08:30:28;23.20;63.30
802;DHT22;383;48.766;9.270;2023-05-07T08:32:56;23.40;62.30
802;DHT22;383;48.766;9.270;2023-05-07T08:35:23;23.70;61.50
802;DHT22;383;48.766;9.270;2023-05-07T08:37:51;23.90;62.70
802;DHT22;383;48.766;9.270;2023-05-07T08:40:17;24.00;61.30
802;DHT22;383;48.766;9.270;2023-05-07T08:42:48;24.20;60.90
802;DHT22;383;48.766;9.270;2023-05-07T08:45:15;24.30;61.10
802;DHT22;383;48.766;9.270;2023-05-07T08:47:47;24.40;59.70
802;DHT22;383;48.766;9.270;2023-05-07T08:50:15;24.30;60.40
802;DHT22;383;48.766;9.270;2023-05-07T08:52:42;24.30;62.20
802;DHT22;383;48.766;9.270;2023-05-07T08:55:09;24.30;61.50
802;DHT22;383;48.766;9.270;2023-05-07T08:57:36;24.10;61.70
802;DHT22;383;48.766;9.270;2023-05-07T09:00:03;24.00;60.90
802;DHT22;383;48.766;9.270;2023-05-07T09:02:32;24.00;62.20
802;DHT22;383;48.766;9.270;2023-05-07T09:04:59;24.00;63.30
802;DHT22;383;48.766;9.270;2023-05-07T09:07:27;24.20;61.40
802;DHT22;383;48.766;9.270;2023-05-07T09:09:54;24.20;61.80
802;DHT22;383;48.766;9.270;2023-05-07T09:12:22;24.20;61.40
802;DHT22;383;48.766;9.270;2023-05-07T09:14:49;24.20;61.80
802;DHT22;383;48.766;9.270;2023-05-07T09:17:16;24.40;59.20
802;DHT22;383;48.766;9.270;2023-05-07T09:19:44;24.30;60.60
802;DHT22;383;48.766;9.270;2023-05-07T09:22:12;24.20;60.50
802;DHT22;383;48.766;9.270;2023-05-07T09:24:40;24.30;62.30
802;DHT22;383;48.766;9.270;2023-05-07T09:27:07;24.40;60.90
802;DHT22;383;48.766;9.270;2023-05-07T09:29:35;24.40;60.50
802;DHT22;383;48.766;9.270;2023-05-07T09:32:02;24.40;59.70
802;DHT22;383;48.766;9.270;2023-05-07T09:34:29;24.30;59.70
802;DHT22;383;48.766;9.270;2023-05-07T09:36:56;24.40;60.10
802;DHT22;383;48.766;9.270;2023-05-07T09:39:23;24.50;61.40
802;DHT22;383;48.766;9.270;2023-05-07T09:41:51;24.60;60.00
802;DHT22;383;48.766;9.270;2023-05-07T09:44:20;24.60;60.20
802;DHT22;383;48.766;9.270;2023-05-07T09:46:49;24.50;60.80
802;DHT22;383;48.766;9.270;2023-05-07T09:49:21;24.60;59.20
802;DHT22;383;48.766;9.270;2023-05-07T09:51:49;24.70;62.50
802;DHT22;383;48.766;9.270;2023-05-07T09:54:17;24.80;62.20
802;DHT22;383;48.766;9.270;2023-05-07T09:56:44;24.70;59.30
802;DHT22;383;48.766;9.270;2023-05-07T09:59:14;24.80;59.20
802;DHT22;383;48.766;9.270;2023-05-07T10:01:42;25.00;59.80
802;DHT22;383;48.766;9.270;2023-05-07T10:04:10;25.10;60.40
802;DHT22;383;48.766;9.270;2023-05-07T10:06:37;25.10;58.80
802;DHT22;383;48.766;9.270;2023-05-07T10:09:05;25.20;59.00
802;DHT22;383;48.766;9.270;2023-05-07T10:11:32;25.30;58.60
802;DHT22;383;48.766;9.270;2023-05-07T10:14:00;25.40;57.40
802;DHT22;383;48.766;9.270;2023-05-07T10:16:31;25.50;57.10
802;DHT22;383;48.766;9.270;2023-05-07T10:19:02;25.50;55.40
802;DHT22;383;48.766;9.270;2023-05-07T10:21:30;25.60;55.70
802;DHT22;383;48.766;9.270;2023-05-07T10:23:59;25.60;55.90
802;DHT22;383;48.766;9.270;2023-05-07T10:26:29;25.70;54.90
802;DHT22;383;48.766;9.270;2023-05-07T10:28:59;26.00;55.40
802;DHT22;383;48.766;9.270;2023-05-07T10:31:46;26.10;53.90
802;DHT22;383;48.766;9.270;2023-05-07T10:34:18;25.90;55.50
802;DHT22;383;48.766;9.270;2023-05-07T10:36:47;26.00;54.60
802;DHT22;383;48.766;9.270;2023-05-07T10:39:14;26.10;54.50
802;DHT22;383;48.766;9.270;2023-05-07T10:41:41;26.30;54.40
802;DHT22;383;48.766;9.270;2023-05-07T10:44:07;26.40;53.40
802;DHT22;383;48.766;9.270;2023-05-07T10:46:35;26.50;55.20
802;DHT22;383;48.766;9.270;2023-05-07T10:49:09;26.80;53.10
802;DHT22;383;48.766;9.270;2023-05-07T10:51:37;27.00;53.30
802;DHT22;383;48.766;9.270;2023-05-07T10:54:21;27.30;52.60
802;DHT22;383;48.766;9.270;2023-05-07T10:56:49;27.60;49.90
802;DHT22;383;48.766;9.270;2023-05-07T10:59:46;27.60;49.50
802;DHT22;383;48.766;9.270;2023-05-07T11:02:14;27.80;50.30
802;DHT22;383;48.766;9.270;2023-05-07T11:04:41;27.90;50.50
802;DHT22;383;48.766;9.270;2023-05-07T11:07:27;28.20;50.90
802;DHT22;383;48.766;9.270;2023-05-07T11:09:59;28.10;49.80
802;DHT22;383;48.766;9.270;2023-05-07T11:12:52;28.10;49.70
802;DHT22;383;48.766;9.270;2023-05-07T11:15:39;28.30;49.80
802;DHT22;383;48.766;9.270;2023-05-07T11:18:09;28.20;49.00
802;DHT22;383;48.766;9.270;2023-05-07T11:20:50;28.40;49.20
802;DHT22;383;48.766;9.270;2023-05-07T11:26:46;28.80;48.80
802;DHT22;383;48.766;9.270;2023-05-07T11:29:14;29.20;46.90
802;DHT22;383;48.766;9.270;2023-05-07T11:31:41;29.40;47.20
802;DHT22;383;48.766;9.270;2023-05-07T11:34:11;29.60;46.80
802;DHT22;383;48.766;9.270;2023-05-07T11:36:42;29.50;46.30
802;DHT22;383;48.766;9.270;2023-05-07T11:39:37;29.40;46.80
802;DHT22;383;48.766;9.270;2023-05-07T11:42:04;29.10;46.40
802;DHT22;383;48.766;9.270;2023-05-07T11:44:42;28.70;46.70
802;DHT22;383;48.766;9.270;2023-05-07T11:47:10;28.30;46.80
802;DHT22;383;48.766;9.270;2023-05-07T11:49:38;27.90;47.40
802;DHT22;383;48.766;9.270;2023-05-07T11:52:06;27.70;47.60
802;DHT22;383;48.766;9.270;2023-05-07T11:54:35;27.40;48.90
802;DHT22;383;48.766;9.270;2023-05-07T11:57:02;27.20;49.50
802;DHT22;383;48.766;9.270;2023-05-07T11:59:29;27.00;50.20
802;DHT22;383;48.766;9.270;2023-05-07T12:01:57;26.90;49.70
802;DHT22;383;48.766;9.270;2023-05-07T12:04:24;26.80;49.70
802;DHT22;383;48.766;9.270;2023-05-07T12:06:55;26.50;50.40
802;DHT22;383;48.766;9.270;2023-05-07T12:09:22;26.30;50.90
802;DHT22;383;48.766;9.270;2023-05-07T12:11:49;26.10;52.50
802;DHT22;383;48.766;9.270;2023-05-07T12:14:18;25.90;52.40
802;DHT22;383;48.766;9.270;2023-05-07T12:16:45;25.70;53.60
802;DHT22;383;48.766;9.270;2023-05-07T12:19:13;25.30;53.90
802;DHT22;383;48.766;9.270;2023-05-07T12:21:40;25.00;55.70
802;DHT22;383;48.766;9.270;2023-05-07T12:24:09;24.80;59.10
802;DHT22;383;48.766;9.270;2023-05-07T12:26:38;24.40;63.00
802;DHT22;383;48.766;9.270;2023-05-07T12:29:06;24.00;66.60
802;DHT22;383;48.766;9.270;2023-05-07T12:31:32;23.40;72.30
802;DHT22;383;48.766;9.270;2023-05-07T12:33:59;22.80;81.50
802;DHT22;383;48.766;9.270;2023-05-07T12:36:26;22.00;84.40
802;DHT22;383;48.766;9.270;2023-05-07T12:39:04;21.20;84.70
802;DHT22;383;48.766;9.270;2023-05-07T12:41:36;20.50;90.70
802;DHT22;383;48.766;9.270;2023-05-07T12:44:04;20.10;92.90
802;DHT22;383;48.766;9.270;2023-05-07T12:46:32;19.70;94.20
802;DHT22;383;48.766;9.270;2023-05-07T12:49:04;19.50;96.20
802;DHT22;383;48.766;9.270;2023-05-07T12:51:31;19.40;95.40
802;DHT22;383;48.766;9.270;2023-05-07T12:53:58;19.20;95.90
802;DHT22;383;48.766;9.270;2023-05-07T12:56:24;19.10;96.70
802;DHT22;383;48.766;9.270;2023-05-07T12:58:57;19.00;94.50
802;DHT22;383;48.766;9.270;2023-05-07T13:01:29;18.80;93.40
802;DHT22;383;48.766;9.270;2023-05-07T13:03:55;18.70;94.60
802;DHT22;383;48.766;9.270;2023-05-07T13:06:22;18.40;97.00
802;DHT22;383;48.766;9.270;2023-05-07T13:08:49;18.20;94.70
802;DHT22;383;48.766;9.270;2023-05-07T13:11:15;17.90;97.10
802;DHT22;383;48.766;9.270;2023-05-07T13:13:42;17.70;98.10
802;DHT22;383;48.766;9.270;2023-05-07T13:16:10;17.50;97.80
802;DHT22;383;48.766;9.270;2023-05-07T13:18:39;17.20;95.10
802;DHT22;383;48.766;9.270;2023-05-07T13:21:06;16.90;95.30
802;DHT22;383;48.766;9.270;2023-05-07T13:23:33;16.60;95.60
802;DHT22;383;48.766;9.270;2023-05-07T13:26:00;16.30;92.50
802;DHT22;383;48.766;9.270;2023-05-07T13:28:27;16.10;93.90
802;DHT22;383;48.766;9.270;2023-05-07T13:30:55;15.80;96.60
802;DHT22;383;48.766;9.270;2023-05-07T13:35:51;15.30;98.20
802;DHT22;383;48.766;9.270;2023-05-07T13:38:18;15.20;98.60
802;DHT22;383;48.766;9.270;2023-05-07T13:40:45;15.10;99.80
802;DHT22;383;48.766;9.270;2023-05-07T13:43:11;15.10;99.90
802;DHT22;383;48.766;9.270;2023-05-07T13:45:38;15.10;99.90
802;DHT22;383;48.766;9.270;2023-05-07T13:48:05;15.20;98.80
802;DHT22;383;48.766;9.270;2023-05-07T13:50:33;15.10;99.30
802;DHT22;383;48.766;9.270;2023-05-07T13:53:00;15.10;99.50
802;DHT22;383;48.766;9.270;2023-05-07T13:55:28;15.20;99.90
802;DHT22;383;48.766;9.270;2023-05-07T13:57:56;15.10;99.90
802;DHT22;383;48.766;9.270;2023-05-07T14:00:23;15.20;99.90
802;DHT22;383;48.766;9.270;2023-05-07T14:02:50;15.30;99.90
802;DHT22;383;48.766;9.270;2023-05-07T14:05:17;15.40;99.90
802;DHT22;383;48.766;9.270;2023-05-07T14:22:28;15.50;99.90
802;DHT22;383;48.766;9.270;2023-05-07T14:24:56;15.90;99.90
802;DHT22;383;48.766;9.270;2023-05-07T14:27:23;16.00;99.90
802;DHT22;383;48.766;9.270;2023-05-07T14:29:50;16.10;99.90
802;DHT22;383;48.766;9.270;2023-05-07T14:32:17;16.10;99.40
802;DHT22;383;48.766;9.270;2023-05-07T14:34:44;16.30;99.90
802;DHT22;383;48.766;9.270;2023-05-07T14:37:11;16.30;99.90
802;DHT22;383;48.766;9.270;2023-05-07T14:39:38;16.40;99.90
802;DHT22;383;48.766;9.270;2023-05-07T14:42:07;16.40;99.90
802;DHT22;383;48.766;9.270;2023-05-07T14:44:34;16.50;99.90
802;DHT22;383;48.766;9.270;2023-05-07T14:47:01;16.50;99.90
802;DHT22;383;48.766;9.270;2023-05-07T14:49:27;16.50;99.90
802;DHT22;383;48.766;9.270;2023-05-07T14:51:57;16.50;99.90
802;DHT22;383;48.766;9.270;2023-05-07T14:54:23;16.60;99.90
802;DHT22;383;48.766;9.270;2023-05-07T14:56:50;16.60;99.90
802;DHT22;383;48.766;9.270;2023-05-07T14:59:19;16.70;99.90
802;DHT22;383;48.766;9.270;2023-05-07T15:01:46;16.60;99.90
802;DHT22;383;48.766;9.270;2023-05-07T15:04:13;16.60;99.90
802;DHT22;383;48.766;9.270;2023-05-07T15:06:40;16.60;98.60
802;DHT22;383;48.766;9.270;2023-05-07T15:09:06;16.50;99.50
802;DHT22;383;48.766;9.270;2023-05-07T15:11:34;16.50;99.70
802;DHT22;383;48.766;9.270;2023-05-07T15:14:01;16.50;99.00
802;DHT22;383;48.766;9.270;2023-05-07T15:16:29;16.50;98.30
802;DHT22;383;48.766;9.270;2023-05-07T15:18:57;16.50;99.00
802;DHT22;383;48.766;9.270;2023-05-07T15:21:23;16.60;98.90
802;DHT22;383;48.766;9.270;2023-05-07T15:23:52;16.70;98.80
802;DHT22;383;48.766;9.270;2023-05-07T15:26:18;16.80;99.30
802;DHT22;383;48.766;9.270;2023-05-07T15:28:45;16.80;99.40
802;DHT22;383;48.766;9.270;2023-05-07T15:31:12;16.80;99.80
802;DHT22;383;48.766;9.270;2023-05-07T15:33:40;16.80;99.90
802;DHT22;383;48.766;9.270;2023-05-07T15:36:09;16.90;99.90
802;DHT22;383;48.766;9.270;2023-05-07T15:38:36;17.00;99.90
802;DHT22;383;48.766;9.270;2023-05-07T15:41:03;17.00;99.90
802;DHT22;383;48.766;9.270;2023-05-07T15:43:29;17.10;99.90
802;DHT22;383;48.766;9.270;2023-05-07T15:45:56;17.10;99.70
802;DHT22;383;48.766;9.270;2023-05-07T15:48:25;17.10;99.90
802;DHT22;383;48.766;9.270;2023-05-07T15:50:53;17.20;99.80
802;DHT22;383;48.766;9.270;2023-05-07T15:53:20;17.20;98.60
802;DHT22;383;48.766;9.270;2023-05-07T15:55:47;17.20;99.00
802;DHT22;383;48.766;9.270;2023-05-07T15:58:14;17.20;99.10
802;DHT22;383;48.766;9.270;2023-05-07T16:00:44;17.30;99.90
802;DHT22;383;48.766;9.270;2023-05-07T16:03:11;17.30;99.90
802;DHT22;383;48.766;9.270;2023-05-07T16:05:38;17.30;99.90
802;DHT22;383;48.766;9.270;2023-05-07T16:08:06;17.30;99.90
802;DHT22;383;48.766;9.270;2023-05-07T16:10:33;17.30;99.90
802;DHT22;383;48.766;9.270;2023-05-07T16:13:00;17.40;99.90
802;DHT22;383;48.766;9.270;2023-05-07T16:15:27;17.40;99.90
802;DHT22;383;48.766;9.270;2023-05-07T16:17:54;17.40;99.90
802;DHT22;383;48.766;9.270;2023-05-07T16:20:23;17.50;99.90
802;DHT22;383;48.766;9.270;2023-05-07T16:22:51;17.50;99.90
802;DHT22;383;48.766;9.270;2023-05-07T16:25:19;17.60;99.70
802;DHT22;383;48.766;9.270;2023-05-07T16:27:46;17.60;99.80
802;DHT22;383;48.766;9.270;2023-05-07T16:30:13;17.60;99.40
802;DHT22;383;48.766;9.270;2023-05-07T16:32:39;17.60;99.20
802;DHT22;383;48.766;9.270;2023-05-07T16:35:07;17.60;99.60
802;DHT22;383;48.766;9.270;2023-05-07T16:37:34;17.50;99.90
802;DHT22;383;48.766;9.270;2023-05-07T16:40:00;17.60;99.90
802;DHT22;383;48.766;9.270;2023-05-07T16:42:32;17.70;99.80
802;DHT22;383;48.766;9.270;2023-05-07T16:44:59;17.70;98.90
802;DHT22;383;48.766;9.270;2023-05-07T16:47:26;17.60;99.30
802;DHT22;383;48.766;9.270;2023-05-07T16:49:53;17.60;98.20
802;DHT22;383;48.766;9.270;2023-05-07T16:52:20;17.60;97.40
802;DHT22;383;48.766;9.270;2023-05-07T16:54:47;17.40;97.20
802;DHT22;383;48.766;9.270;2023-05-07T16:57:14;17.40;97.30